createdAt,value
2023-05-18T20:08:47.865Z,1.83
2023-05-18T20:11:15.818Z,2.13
2023-05-18T20:13:44.916Z,1.67
2023-05-18T20:16:13.730Z,2.05
2023-05-18T20:18:41.864Z,1.60
2023-05-18T20:21:09.782Z,1.55
2023-05-18T20:23:37.717Z,1.63
2023-05-18T20:26:07.022Z,1.38
2023-05-18T20:28:35.055Z,2.03
2023-05-18T20:31:02.993Z,2.22
2023-05-18T20:33:34.142Z,3.00
2023-05-18T20:36:02.049Z,2.83
2023-05-18T20:38:30.468Z,4.43
2023-05-18T20:40:59.466Z,4.68
2023-05-18T20:43:28.882Z,5.35
2023-05-18T20:45:57.043Z,5.57
2023-05-18T20:48:26.686Z,6.18
2023-05-18T20:50:54.874Z,7.53
2023-05-18T20:53:22.817Z,6.70
2023-05-18T20:55:54.079Z,7.93
2023-05-18T20:58:22.282Z,9.43
2023-05-18T21:00:52.116Z,8.63
2023-05-18T21:03:20.209Z,8.32
2023-05-18T21:05:49.757Z,9.18
2023-05-18T21:08:17.653Z,10.38
2023-05-18T21:10:45.549Z,10.68
2023-05-18T21:13:13.512Z,10.05
2023-05-18T21:15:41.408Z,10.68
2023-05-18T21:18:10.810Z,11.63
2023-05-18T21:20:38.788Z,11.27
2023-05-18T21:23:06.774Z,12.25
2023-05-18T21:25:34.664Z,12.18
2023-05-18T21:28:02.635Z,12.65
2023-05-18T21:30:31.404Z,12.63
2023-05-18T21:32:59.732Z,13.75
2023-05-18T21:35:29.245Z,13.18
2023-05-18T21:37:57.212Z,14.27
2023-05-18T21:40:25.096Z,13.98
2023-05-18T21:42:53.898Z,14.27
2023-05-18T21:45:22.536Z,14.82
2023-05-18T21:47:50.861Z,15.05
2023-05-18T21:50:18.928Z,14.35
2023-05-18T21:52:48.211Z,14.10
2023-05-18T21:55:16.243Z,15.60
2023-05-18T21:57:44.181Z,15.52
2023-05-18T22:00:13.735Z,16.95
2023-05-18T22:02:41.806Z,16.60
2023-05-18T22:05:10.583Z,16.08
2023-05-18T22:07:38.505Z,17.33
2023-05-18T22:10:08.456Z,17.83
2023-05-18T22:12:37.694Z,18.63
2023-05-18T22:15:06.509Z,16.45
2023-05-18T22:17:36.594Z,16.70
2023-05-18T22:20:06.370Z,15.77
